createdAt,value
2019-04-11T00:03:47.971Z,59.80
2019-04-11T00:08:47.520Z,60.00
2019-04-11T00:13:47.387Z,60.80
2019-04-11T00:18:47.202Z,62.00
2019-04-11T00:23:48.231Z,62.50
2019-04-11T00:28:48.054Z,63.50
2019-04-11T00:33:48.736Z,63.60
2019-04-11T00:38:48.402Z,65.00
2019-04-11T00:44:08.314Z,65.60
2019-04-11T00:49:08.253Z,66.50
2019-04-11T00:54:08.789Z,68.40
2019-04-11T00:59:08.513Z,70.10
2019-04-11T01:04:08.098Z,71.50
2019-04-11T01:09:08.297Z,73.30
2019-04-11T01:14:09.861Z,74.30
2019-04-11T01:19:10.750Z,75.50
2019-04-11T01:24:11.364Z,76.30
2019-04-11T01:29:11.336Z,79.70
2019-04-11T01:34:11.241Z,81.00
2019-04-11T01:39:29.492Z,84.40
2019-04-11T01:44:30.383Z,85.90
2019-04-11T01:49:30.376Z,87.40
2019-04-11T01:54:30.096Z,90.20
2019-04-11T01:59:29.800Z,90.30
2019-04-11T02:04:43.936Z,90.90
2019-04-11T02:09:44.228Z,92.60
2019-04-11T02:14:44.006Z,94.50
2019-04-11T02:19:44.679Z,95.40
2019-04-11T02:24:52.275Z,96.70
2019-04-11T02:29:52.953Z,98.20
2019-04-11T02:34:56.146Z,97.50
2019-04-11T02:39:55.784Z,99.90
2019-04-11T02:45:09.342Z,99.90
2019-04-11T02:49:57.347Z,99.90
2019-04-11T02:54:57.535Z,99.90
2019-04-11T02:59:59.853Z,99.90
2019-04-11T03:05:00.453Z,99.90
2019-04-11T03:10:00.603Z,99.90
2019-04-11T03:15:18.154Z,99.90
2019-04-11T03:20:18.406Z,99.90
2019-04-11T03:25:08.469Z,99.90
2019-04-11T03:30:13.740Z,99.90
2019-04-11T03:36:01.224Z,99.90
2019-04-11T03:40:30.487Z,99.90
2019-04-11T03:45:32.804Z,99.90
2019-04-11T03:50:17.467Z,99.90
2019-04-11T03:55:16.579Z,99.90
2019-04-11T04:00:16.708Z,99.90
2019-04-11T04:05:17.592Z,99.90
2019-04-11T04:10:20.332Z,99.90
2019-04-11T04:15:53.464Z,99.90
2019-04-11T04:20:46.941Z,99.90
2019-04-11T04:25:47.301Z,99.90
2019-04-11T04:30:47.150Z,99.90
2019-04-11T04:35:49.615Z,99.90
2019-04-11T04:41:05.988Z,99.90
2019-04-11T04:46:08.501Z,99.90
2019-04-11T04:50:56.402Z,99.90
2019-04-11T04:55:54.384Z,99.90
2019-04-11T05:00:57.834Z,99.90
2019-04-11T05:05:55.685Z,99.90
2019-04-11T05:10:57.729Z,99.90
2019-04-11T05:16:06.936Z,99.90
2019-04-11T05:20:59.019Z,99.90
2019-04-11T05:25:59.985Z,99.90
2019-04-11T05:31:00.462Z,99.90
2019-04-11T05:36:00.520Z,99.90
2019-04-11T05:41:02.105Z,99.90
2019-04-11T05:46:03.642Z,99.90
2019-04-11T05:51:04.673Z,99.90
2019-04-11T05:56:05.311Z,99.90
2019-04-11T06:01:12.929Z,99.90
2019-04-11T06:06:20.468Z,99.90
2019-04-11T06:11:24.777Z,99.90
2019-04-11T06:16:36.126Z,99.90
2019-04-11T06:21:33.975Z,99.90
2019-04-11T06:26:51.813Z,99.90
2019-04-11T06:32:09.769Z,99.90
2019-04-11T06:37:31.934Z,99.90
2019-04-11T06:42:47.658Z,99.90
2019-04-11T06:48:03.192Z,99.90
2019-04-11T06:53:02.792Z,99.90
2019-04-11T06:58:07.274Z,99.90
2019-04-11T07:03:18.817Z,99.90
2019-04-11T07:08:11.345Z,99.90
2019-04-11T07:13:18.521Z,99.90
2019-04-11T07:18:37.698Z,99.90
2019-04-11T07:23:57.476Z,99.90
2019-04-11T07:29:23.723Z,99.90
2019-04-11T07:34:40.123Z,99.90
2019-04-11T07:40:15.330Z,97.00
2019-04-11T07:45:20.961Z,97.40
2019-04-11T07:50:21.361Z,95.90
2019-04-11T07:55:23.134Z,95.70
2019-04-11T08:00:47.138Z,93.70
2019-04-11T08:06:05.292Z,92.20
2019-04-11T08:11:27.900Z,93.40
2019-04-11T08:16:46.808Z,89.60
2019-04-11T08:22:04.349Z,87.30
2019-04-11T08:27:21.794Z,87.50
2019-04-11T08:32:42.395Z,81.90
2019-04-11T08:37:55.935Z,82.40
2019-04-11T08:43:04.646Z,82.90
2019-04-11T08:48:06.114Z,79.80
2019-04-11T08:53:20.631Z,82.60
2019-04-11T08:58:40.586Z,80.00
2019-04-11T09:04:07.027Z,76.80
2019-04-11T09:09:25.569Z,74.50
2019-04-11T09:14:44.489Z,72.80
2019-04-11T09:20:03.348Z,72.40
2019-04-11T09:25:23.190Z,66.80
2019-04-11T09:30:33.713Z,62.40
2019-04-11T09:35:33.889Z,62.70
2019-04-11T09:40:52.586Z,62.60
2019-04-11T09:46:16.950Z,58.70
2019-04-11T09:51:42.287Z,66.20
2019-04-11T09:57:04.785Z,56.80
2019-04-11T10:02:23.353Z,59.60
2019-04-11T10:07:41.971Z,59.60
2019-04-11T10:13:00.831Z,61.00
2019-04-11T10:18:25.311Z,59.80
2019-04-11T10:23:25.009Z,58.00
2019-04-11T10:28:47.289Z,54.40
2019-04-11T10:34:19.530Z,57.40
2019-04-11T10:39:43.823Z,57.10
2019-04-11T10:44:52.003Z,57.00
2019-04-11T10:50:09.103Z,58.00
2019-04-11T10:55:19.529Z,56.30
2019-04-11T11:00:27.725Z,61.30
2019-04-11T11:05:28.365Z,59.10
2019-04-11T11:10:31.203Z,58.90
2019-04-11T11:15:33.826Z,56.50
2019-04-11T11:20:43.010Z,57.10
2019-04-11T11:25:49.989Z,59.40
2019-04-11T11:31:03.200Z,57.30
2019-04-11T11:36:21.371Z,55.90
2019-04-11T11:41:40.585Z,56.00
2019-04-11T11:47:01.595Z,57.20
2019-04-11T11:52:34.183Z,54.90
2019-04-11T11:57:40.075Z,55.60
2019-04-11T12:02:46.462Z,55.70
2019-04-11T12:07:54.336Z,57.70
2019-04-11T12:13:23.098Z,57.70
2019-04-11T12:18:46.524Z,59.00
2019-04-11T12:24:00.676Z,59.50
2019-04-11T12:29:12.134Z,59.70
2019-04-11T12:34:36.565Z,59.30
2019-04-11T12:39:54.030Z,61.50
2019-04-11T12:45:12.450Z,60.00
2019-04-11T12:50:31.677Z,59.10
2019-04-11T12:55:37.196Z,58.80
2019-04-11T13:00:56.789Z,58.30
2019-04-11T13:05:59.898Z,59.80
2019-04-11T13:10:59.527Z,56.50
2019-04-11T13:16:11.373Z,57.50
2019-04-11T13:21:28.613Z,57.40
2019-04-11T13:26:59.478Z,58.70
2019-04-11T13:32:16.930Z,56.80
2019-04-11T13:37:35.594Z,57.70
2019-04-11T13:42:54.302Z,57.30
2019-04-11T13:48:11.917Z,56.90
2019-04-11T13:53:48.697Z,57.40
2019-04-11T13:59:23.137Z,58.00
2019-04-11T14:04:27.288Z,59.20
2019-04-11T14:09:36.445Z,58.50
2019-04-11T14:15:01.336Z,57.80
2019-04-11T14:20:32.411Z,60.30
2019-04-11T14:25:50.230Z,60.30
2019-04-11T14:31:12.702Z,59.30
2019-04-11T14:36:40.550Z,59.50
2019-04-11T14:41:59.871Z,59.70
2019-04-11T14:47:15.779Z,59.10
2019-04-11T14:52:41.365Z,61.40
2019-04-11T14:57:59.593Z,60.50
2019-04-11T15:03:24.541Z,60.40
2019-04-11T15:08:34.166Z,61.50
2019-04-11T15:13:34.010Z,62.50
2019-04-11T15:18:36.413Z,62.00
2019-04-11T15:23:39.077Z,63.50
2019-04-11T15:28:51.306Z,63.80
2019-04-11T15:34:17.549Z,64.70
2019-04-11T15:39:54.398Z,64.30
2019-04-11T15:45:02.169Z,66.30
2019-04-11T15:50:20.519Z,64.30
2019-04-11T15:55:54.322Z,64.80
2019-04-11T16:00:59.530Z,66.40
2019-04-11T16:06:17.153Z,66.20
2019-04-11T16:11:35.856Z,66.60
2019-04-11T16:16:53.205Z,67.30
2019-04-11T16:22:06.911Z,67.70
2019-04-11T16:27:32.038Z,68.50
2019-04-11T16:32:33.302Z,68.50
2019-04-11T16:37:32.982Z,69.90
2019-04-11T16:42:36.333Z,71.40
2019-04-11T16:47:53.724Z,70.10
2019-04-11T16:52:59.978Z,71.00
2019-04-11T16:57:59.539Z,69.90
2019-04-11T17:02:59.207Z,70.90
2019-04-11T17:08:25.899Z,71.70
2019-04-11T17:13:25.987Z,71.30
2019-04-11T17:18:26.439Z,70.50
2019-04-11T17:23:26.033Z,71.20
2019-04-11T17:28:25.623Z,71.40
2019-04-11T17:33:27.818Z,77.20
2019-04-11T17:38:26.545Z,78.90
2019-04-11T17:43:26.170Z,79.90
2019-04-11T17:48:25.858Z,79.50
2019-04-11T17:53:26.437Z,79.80
2019-04-11T17:58:27.226Z,77.60
2019-04-11T18:03:27.465Z,78.80
2019-04-11T18:08:27.032Z,80.50
2019-04-11T18:13:28.003Z,82.50
2019-04-11T18:18:28.823Z,84.00
2019-04-11T18:23:28.370Z,87.80
2019-04-11T18:28:27.967Z,89.40
2019-04-11T18:33:31.460Z,91.00
2019-04-11T18:38:31.831Z,92.10
2019-04-11T18:43:30.103Z,93.10
2019-04-11T18:48:29.738Z,94.10
2019-04-11T18:53:29.334Z,94.70
2019-04-11T18:58:28.897Z,95.10
2019-04-11T19:03:36.167Z,95.40
2019-04-11T19:08:30.057Z,95.80
2019-04-11T19:13:29.710Z,96.40
2019-04-11T19:18:29.251Z,96.90
2019-04-11T19:23:28.877Z,97.00
2019-04-11T19:28:28.459Z,96.80
2019-04-11T19:33:28.005Z,97.00
2019-04-11T19:38:29.791Z,98.00
2019-04-11T19:43:29.334Z,98.80
2019-04-11T19:48:28.909Z,98.20
2019-04-11T19:53:28.444Z,99.60
2019-04-11T19:58:29.837Z,99.90
2019-04-11T20:03:31.684Z,99.90
2019-04-11T20:08:30.709Z,99.40
2019-04-11T20:13:32.234Z,99.90
2019-04-11T20:18:31.478Z,99.90
2019-04-11T20:23:31.054Z,99.60
2019-04-11T20:28:30.670Z,99.90
2019-04-11T20:33:33.832Z,99.90
2019-04-11T20:38:31.578Z,99.90
2019-04-11T20:43:31.114Z,99.90
2019-04-11T20:48:31.498Z,99.90
2019-04-11T20:53:32.195Z,99.90
2019-04-11T20:58:31.751Z,99.90
2019-04-11T21:03:31.290Z,99.90
2019-04-11T21:08:33.000Z,99.90
2019-04-11T21:13:32.128Z,99.90
2019-04-11T21:18:32.278Z,99.90
2019-04-11T21:23:32.222Z,99.90
2019-04-11T21:28:32.024Z,99.90
2019-04-11T21:33:34.010Z,99.90
2019-04-11T21:38:32.859Z,99.90
2019-04-11T21:43:35.847Z,99.90
2019-04-11T21:48:35.837Z,99.90
2019-04-11T21:53:36.703Z,99.90
2019-04-11T21:58:36.433Z,99.90
2019-04-11T22:03:37.016Z,99.90
2019-04-11T22:08:36.725Z,99.90
2019-04-11T22:13:37.899Z,99.90
2019-04-11T22:18:38.854Z,99.90
2019-04-11T22:23:48.266Z,99.90
2019-04-11T22:28:39.817Z,99.90
2019-04-11T22:33:57.655Z,99.90
2019-04-11T22:38:56.402Z,99.90
2019-04-11T22:43:56.117Z,99.90
2019-04-11T22:48:55.649Z,99.90
2019-04-11T22:54:00.193Z,99.90
2019-04-11T22:58:56.737Z,99.90
2019-04-11T23:03:59.348Z,99.90
2019-04-11T23:08:58.878Z,99.90
2019-04-11T23:13:58.534Z,99.90
2019-04-11T23:18:58.159Z,99.90
2019-04-11T23:23:57.771Z,99.90
2019-04-11T23:28:57.377Z,99.90
2019-04-11T23:33:57.101Z,99.90
2019-04-11T23:38:56.722Z,99.90
2019-04-11T23:43:56.266Z,99.90
2019-04-11T23:48:55.862Z,99.90
2019-04-11T23:53:58.968Z,99.90
2019-04-11T23:58:56.694Z,99.90
